MROC/SJO METAR and TAF weather

Enter ICAO airport designator
Station Type Date Time Source
MROC METAR 2019/08/24 07:00 UTC NOAA

MROC 240700Z 08009KT 050V110 9999 FEW040 22/17 A3001 NOSIG


Station Type Date Time Source
MROC Decoded METAR 2019/08/24 07:00 UTC NOAA

Station name not available
Aug 24, 2019 - 03:00 AM EDT / 2019.08.24 0700 UTC
Wind: from the E (080 degrees) at 10 MPH (9 KT) (direction variable):0
Visibility: greater than 7 mile(s):0
Sky conditions: mostly clear
Temperature: 71 F (22 C)
Dew Point: 62 F (17 C)
Relative Humidity: 73%
Pressure (altimeter): 30.01 in. Hg (1016 hPa)
ob: MROC 240700Z 08009KT 050V110 9999 FEW040 22/17 A3001 NOSIG
cycle: 7

Station Type Date Time Source
MROC TAF 2019/08/24 06:09 UTC NOAA

TAF MROC 240500Z 2406/2506 08006KT 9999 FEW035 TX30/2419Z TN19/2410Z
TEMPO 2419/2424 24008KT RA BKN100
TEMPO 2501/2505 VRB02KT

Example: see airport list